createdAt,value
2018-07-27T00:00:34.084Z,23.05
2018-07-27T00:01:34.184Z,23.05
2018-07-27T00:02:34.223Z,23.04
2018-07-27T00:03:34.241Z,23.04
2018-07-27T00:04:34.176Z,23.04
2018-07-27T00:05:33.997Z,23.04
2018-07-27T00:06:34.245Z,23.04
2018-07-27T00:07:34.210Z,23.04
2018-07-27T00:08:34.172Z,23.04
2018-07-27T00:09:34.231Z,23.04
2018-07-27T00:10:34.119Z,23.04
2018-07-27T00:11:34.132Z,23.04
2018-07-27T00:12:34.027Z,23.03
2018-07-27T00:13:34.250Z,23.02
2018-07-27T00:14:34.044Z,23.03
2018-07-27T00:15:34.142Z,23.02
2018-07-27T00:16:34.258Z,23.02
2018-07-27T00:17:34.227Z,23.04
2018-07-27T00:18:34.145Z,23.02
2018-07-27T00:19:34.013Z,23.02
2018-07-27T00:20:34.256Z,23.03
2018-07-27T00:21:34.315Z,23.02
2018-07-27T00:22:34.114Z,23.01
2018-07-27T00:23:34.050Z,23.02
2018-07-27T00:24:34.099Z,23.01
2018-07-27T00:25:34.177Z,23.02
2018-07-27T00:26:34.205Z,23.03
2018-07-27T00:27:34.044Z,23.02
2018-07-27T00:28:34.215Z,23.02
2018-07-27T00:29:34.052Z,23.02
2018-07-27T00:30:34.117Z,23.01
2018-07-27T00:31:34.269Z,23.01
2018-07-27T00:32:34.125Z,23
2018-07-27T00:33:34.252Z,23.01
2018-07-27T00:34:34.076Z,23.01
2018-07-27T00:35:34.268Z,23.01
2018-07-27T00:36:34.187Z,23.02
2018-07-27T00:37:34.142Z,23.01
2018-07-27T00:38:34.072Z,23
2018-07-27T00:39:34.351Z,23.01
2018-07-27T00:40:34.121Z,23.01
2018-07-27T00:41:34.031Z,23
2018-07-27T00:42:34.209Z,23
2018-07-27T00:43:34.251Z,23.01
2018-07-27T00:44:34.522Z,23.01
2018-07-27T00:45:33.952Z,23
2018-07-27T00:46:34.064Z,23.01
2018-07-27T00:47:33.993Z,23.01
2018-07-27T00:48:34.306Z,23
2018-07-27T00:49:34.185Z,23.01
2018-07-27T00:50:33.973Z,23
2018-07-27T00:51:34.096Z,23
2018-07-27T00:52:34.253Z,22.99
2018-07-27T00:53:34.152Z,23
2018-07-27T00:54:34.130Z,23.01
2018-07-27T00:55:34.025Z,23
2018-07-27T00:56:34.049Z,23.01
2018-07-27T00:57:34.135Z,23.01
2018-07-27T00:58:34.022Z,23.01
2018-07-27T00:59:33.985Z,23
2018-07-27T01:00:34.112Z,23
2018-07-27T01:01:34.252Z,23
2018-07-27T01:02:34.045Z,23
2018-07-27T01:03:34.020Z,23
2018-07-27T01:04:34.255Z,23
2018-07-27T01:05:34.129Z,23
2018-07-27T01:06:34.110Z,23
2018-07-27T01:07:34.191Z,22.99
2018-07-27T01:08:44.061Z,23
2018-07-27T01:09:34.808Z,23
2018-07-27T01:10:34.238Z,23
2018-07-27T01:11:34.324Z,22.99
2018-07-27T01:12:34.190Z,22.99
2018-07-27T01:13:34.239Z,22.99
2018-07-27T01:14:34.147Z,23
2018-07-27T01:15:33.989Z,22.99
2018-07-27T01:16:34.170Z,22.99
2018-07-27T01:17:34.144Z,23
2018-07-27T01:18:34.004Z,22.99
2018-07-27T01:19:34.498Z,22.98
2018-07-27T01:20:34.057Z,22.99
2018-07-27T01:21:34.230Z,22.99
2018-07-27T01:22:34.264Z,22.99
2018-07-27T01:23:34.227Z,22.99
2018-07-27T01:24:44.154Z,22.99
2018-07-27T01:25:34.240Z,22.98
2018-07-27T01:26:34.069Z,22.98
2018-07-27T01:27:34.205Z,22.99
2018-07-27T01:28:34.129Z,22.98
2018-07-27T01:29:34.321Z,22.99
2018-07-27T01:30:34.283Z,22.98
2018-07-27T01:31:34.184Z,22.98
2018-07-27T01:32:34.109Z,22.98
2018-07-27T01:33:34.158Z,22.99
2018-07-27T01:34:33.972Z,22.98
2018-07-27T01:35:34.208Z,22.99
2018-07-27T01:36:34.144Z,22.99
2018-07-27T01:37:34.227Z,22.98
2018-07-27T01:38:34.186Z,22.99
2018-07-27T01:39:34.224Z,22.98
2018-07-27T01:40:34.287Z,22.98
2018-07-27T01:41:34.196Z,22.98
2018-07-27T01:42:34.104Z,22.98
2018-07-27T01:43:34.089Z,22.98
2018-07-27T01:44:34.192Z,22.97
2018-07-27T01:45:34.139Z,22.98
2018-07-27T01:46:34.065Z,22.98
2018-07-27T01:47:34.177Z,22.98
2018-07-27T01:48:34.080Z,22.98
2018-07-27T01:49:34.092Z,22.98
2018-07-27T01:50:34.019Z,22.98
2018-07-27T01:51:34.146Z,22.98
2018-07-27T01:52:33.980Z,22.98
2018-07-27T01:53:34.049Z,22.98
2018-07-27T01:54:34.238Z,22.98
2018-07-27T01:55:34.068Z,22.98
2018-07-27T01:56:34.034Z,22.98
2018-07-27T01:57:34.215Z,22.97
2018-07-27T01:58:34.241Z,22.98
2018-07-27T01:59:34.080Z,22.98
2018-07-27T02:00:34.188Z,22.98
2018-07-27T02:01:34.056Z,22.98
2018-07-27T02:02:34.060Z,22.99
2018-07-27T02:03:34.243Z,22.97
2018-07-27T02:04:34.179Z,22.98
2018-07-27T02:05:34.126Z,22.97
2018-07-27T02:06:34.037Z,22.97
2018-07-27T02:07:34.136Z,22.98
2018-07-27T02:08:33.981Z,22.97
2018-07-27T02:09:34.131Z,22.97
2018-07-27T02:10:33.853Z,22.97
2018-07-27T02:11:34.079Z,22.98
2018-07-27T02:12:34.583Z,22.97
2018-07-27T02:13:34.153Z,22.97
2018-07-27T02:14:33.997Z,22.97
2018-07-27T02:15:34.107Z,22.98
2018-07-27T02:16:34.114Z,22.98
2018-07-27T02:17:33.994Z,22.97
2018-07-27T02:18:34.134Z,22.96
2018-07-27T02:19:33.960Z,22.97
2018-07-27T02:20:34.063Z,22.97
2018-07-27T02:21:34.072Z,22.96
2018-07-27T02:22:34.127Z,22.97
2018-07-27T02:23:34.183Z,22.98
2018-07-27T02:24:34.264Z,22.97
2018-07-27T02:25:34.027Z,22.97
2018-07-27T02:26:33.987Z,22.96
2018-07-27T02:27:34.243Z,22.97
2018-07-27T02:28:33.988Z,22.97
2018-07-27T02:29:34.007Z,22.96
2018-07-27T02:30:34.066Z,22.96
2018-07-27T02:31:34.358Z,22.97
2018-07-27T02:32:34.190Z,22.97
2018-07-27T02:33:34.251Z,22.96
2018-07-27T02:34:34.031Z,22.96
2018-07-27T02:35:34.152Z,22.96
2018-07-27T02:36:34.436Z,22.97
2018-07-27T02:37:33.970Z,22.96
2018-07-27T02:38:34.174Z,22.95
2018-07-27T02:39:34.029Z,22.96
2018-07-27T02:40:34.042Z,22.96
2018-07-27T02:41:34.524Z,22.96
2018-07-27T02:42:34.152Z,22.96
2018-07-27T02:43:34.059Z,22.96
2018-07-27T02:44:34.415Z,22.96
2018-07-27T02:45:34.206Z,22.96
2018-07-27T02:46:34.085Z,22.96
2018-07-27T02:47:34.376Z,22.96
2018-07-27T02:48:34.428Z,22.95
2018-07-27T02:49:34.063Z,22.96
2018-07-27T02:50:34.160Z,22.96
2018-07-27T02:51:33.992Z,22.95
2018-07-27T02:52:34.241Z,22.95
2018-07-27T02:53:34.034Z,22.95
2018-07-27T02:54:34.225Z,22.95
2018-07-27T02:55:33.939Z,22.96
2018-07-27T02:56:34.139Z,22.95
2018-07-27T02:57:34.146Z,22.96
2018-07-27T02:58:34.297Z,22.96
2018-07-27T02:59:34.167Z,22.95
2018-07-27T03:00:33.969Z,22.96
2018-07-27T03:01:34.007Z,22.95
2018-07-27T03:02:34.114Z,22.96
2018-07-27T03:03:34.261Z,22.96
2018-07-27T03:04:34.042Z,22.96
2018-07-27T03:05:34.110Z,22.95
2018-07-27T03:06:34.228Z,22.95
2018-07-27T03:07:34.161Z,22.95
2018-07-27T03:08:33.967Z,22.95
2018-07-27T03:09:34.292Z,22.95
2018-07-27T03:10:34.107Z,22.96
2018-07-27T03:11:34.081Z,22.95
2018-07-27T03:12:34.077Z,22.95
2018-07-27T03:13:34.134Z,22.95
2018-07-27T03:14:34.172Z,22.95
2018-07-27T03:15:34.156Z,22.95
2018-07-27T03:16:34.249Z,22.96
2018-07-27T03:17:34.416Z,22.95
2018-07-27T03:18:34.089Z,22.95
2018-07-27T03:19:34.520Z,22.95
2018-07-27T03:20:33.999Z,22.94
2018-07-27T03:21:34.007Z,22.95
2018-07-27T03:22:33.952Z,22.95
2018-07-27T03:23:34.040Z,22.95
2018-07-27T03:24:34.132Z,22.95
2018-07-27T03:25:34.198Z,22.94
2018-07-27T03:26:33.944Z,22.95
2018-07-27T03:27:34.153Z,22.94
2018-07-27T03:28:34.089Z,22.94
2018-07-27T03:29:33.980Z,22.95
2018-07-27T03:30:34.044Z,22.95
2018-07-27T03:31:34.022Z,22.94
2018-07-27T03:32:34.111Z,22.94
2018-07-27T03:33:34.146Z,22.94
2018-07-27T03:34:33.961Z,22.94
2018-07-27T03:35:34.267Z,22.94
2018-07-27T03:36:34.101Z,22.95
2018-07-27T03:37:34.078Z,22.95
2018-07-27T03:38:34.172Z,22.93
2018-07-27T03:39:34.048Z,22.93
2018-07-27T03:40:34.023Z,22.94
2018-07-27T03:41:34.090Z,22.94
2018-07-27T03:42:34.087Z,22.94
2018-07-27T03:43:34.200Z,22.93
2018-07-27T03:44:34.348Z,22.94
2018-07-27T03:45:34.069Z,22.94
2018-07-27T03:46:34.203Z,22.93
2018-07-27T03:47:34.074Z,22.94
2018-07-27T03:48:34.312Z,22.95
2018-07-27T03:49:33.916Z,22.93
2018-07-27T03:50:34.276Z,22.94
2018-07-27T03:51:34.030Z,22.93
2018-07-27T03:52:34.108Z,22.94
2018-07-27T03:53:34.004Z,22.93
2018-07-27T03:54:34.169Z,22.93
2018-07-27T03:55:34.450Z,22.93
2018-07-27T03:56:34.160Z,22.93
2018-07-27T03:57:34.270Z,22.93
2018-07-27T03:58:33.922Z,22.94
2018-07-27T03:59:34.139Z,22.93
2018-07-27T04:00:34.042Z,22.93
2018-07-27T04:01:34.118Z,22.93
2018-07-27T04:02:33.994Z,22.94
2018-07-27T04:03:34.207Z,22.93
2018-07-27T04:04:34.056Z,22.93
2018-07-27T04:05:34.206Z,22.93
2018-07-27T04:06:33.966Z,22.93
2018-07-27T04:07:33.922Z,22.93
2018-07-27T04:08:34.045Z,22.94
2018-07-27T04:09:34.073Z,22.93
2018-07-27T04:10:34.252Z,22.93
2018-07-27T04:11:34.150Z,22.93
2018-07-27T04:12:34.288Z,22.93
2018-07-27T04:13:34.096Z,22.93
2018-07-27T04:14:34.121Z,22.92
2018-07-27T04:15:34.270Z,22.93
2018-07-27T04:16:33.908Z,22.93
2018-07-27T04:17:34.412Z,22.93
2018-07-27T04:18:34.072Z,22.93
2018-07-27T04:19:34.370Z,22.92
2018-07-27T04:20:34.201Z,22.93
2018-07-27T04:21:34.006Z,22.92
2018-07-27T04:22:34.022Z,22.92
2018-07-27T04:23:33.977Z,22.93
2018-07-27T04:24:34.061Z,22.92
2018-07-27T04:25:33.965Z,22.93
2018-07-27T04:26:33.963Z,22.92
2018-07-27T04:27:34.057Z,22.92
2018-07-27T04:28:34.171Z,22.92
2018-07-27T04:29:34.214Z,22.93
2018-07-27T04:30:34.126Z,22.93
2018-07-27T04:31:34.112Z,22.92
2018-07-27T04:32:34.142Z,22.92
2018-07-27T04:33:34.029Z,22.92
2018-07-27T04:34:34.010Z,22.93
2018-07-27T04:35:34.115Z,22.92
2018-07-27T04:36:34.066Z,22.91
2018-07-27T04:37:34.187Z,22.92
2018-07-27T04:38:34.050Z,22.92
2018-07-27T04:39:34.010Z,22.92
2018-07-27T04:40:34.041Z,22.93
2018-07-27T04:41:34.004Z,22.93
2018-07-27T04:42:33.966Z,22.92
2018-07-27T04:43:33.869Z,22.92
2018-07-27T04:44:33.956Z,22.92
2018-07-27T04:45:34.105Z,22.92
2018-07-27T04:46:34.210Z,22.92
2018-07-27T04:47:34.142Z,22.92
2018-07-27T04:48:34.048Z,22.92
2018-07-27T04:49:33.966Z,22.92
2018-07-27T04:50:34.144Z,22.92
2018-07-27T04:51:33.957Z,22.93
2018-07-27T04:52:33.954Z,22.92
2018-07-27T04:53:34.101Z,22.92
2018-07-27T04:54:34.047Z,22.92
2018-07-27T04:55:33.919Z,22.92
2018-07-27T04:56:34.022Z,22.92
2018-07-27T04:57:34.014Z,22.92
2018-07-27T04:58:33.911Z,22.91
2018-07-27T04:59:34.114Z,22.93
2018-07-27T05:00:33.957Z,22.83
2018-07-27T05:01:33.937Z,22.67
2018-07-27T05:02:34.100Z,22.63
2018-07-27T05:03:34.053Z,22.58
2018-07-27T05:04:34.169Z,22.53
2018-07-27T05:05:33.957Z,22.51
2018-07-27T05:06:34.079Z,22.46
2018-07-27T05:07:34.217Z,22.42
2018-07-27T05:08:34.438Z,22.38
2018-07-27T05:09:33.999Z,22.4
2018-07-27T05:10:33.963Z,22.35
2018-07-27T05:11:34.140Z,22.41
2018-07-27T05:12:34.036Z,22.36
2018-07-27T05:13:34.460Z,22.34
2018-07-27T05:14:34.161Z,22.35
2018-07-27T05:15:34.084Z,22.35
2018-07-27T05:16:33.965Z,22.42
2018-07-27T05:17:34.318Z,22.38
2018-07-27T05:18:34.058Z,22.36
2018-07-27T05:19:33.938Z,22.31
2018-07-27T05:20:34.180Z,22.31
2018-07-27T05:21:34.066Z,22.31
2018-07-27T05:22:34.080Z,22.33
2018-07-27T05:23:33.920Z,22.35
2018-07-27T05:24:34.335Z,22.31
2018-07-27T05:25:34.093Z,22.31
2018-07-27T05:26:34.314Z,22.33
2018-07-27T05:27:34.067Z,22.32
2018-07-27T05:28:33.884Z,22.31
2018-07-27T05:29:34.028Z,22.33
2018-07-27T05:30:34.056Z,22.33
2018-07-27T05:31:34.394Z,22.34
2018-07-27T05:32:33.934Z,22.37
2018-07-27T05:33:34.129Z,22.37
2018-07-27T05:34:33.960Z,22.4
2018-07-27T05:35:33.977Z,22.41
2018-07-27T05:36:34.478Z,22.43
2018-07-27T05:37:34.061Z,22.43
2018-07-27T05:38:34.050Z,22.44
2018-07-27T05:39:33.968Z,22.45
2018-07-27T05:40:34.123Z,22.46
2018-07-27T05:41:34.078Z,22.47
2018-07-27T05:42:34.052Z,22.48
2018-07-27T05:43:34.016Z,22.49
2018-07-27T05:44:34.008Z,22.51
2018-07-27T05:45:34.168Z,22.5
2018-07-27T05:46:33.909Z,22.53
2018-07-27T05:47:34.081Z,22.52
2018-07-27T05:48:34.117Z,22.57
2018-07-27T05:49:34.064Z,22.57
2018-07-27T05:50:34.194Z,22.56
2018-07-27T05:51:34.091Z,22.57
2018-07-27T05:52:34.124Z,22.57
2018-07-27T05:53:34.154Z,22.56
2018-07-27T05:54:33.964Z,22.53
2018-07-27T05:55:57.402Z,22.51
2018-07-27T05:56:33.897Z,22.53
2018-07-27T05:57:33.957Z,22.56
2018-07-27T05:58:33.872Z,22.55
2018-07-27T05:59:34.002Z,22.54
2018-07-27T06:00:34.063Z,22.54
2018-07-27T06:01:33.881Z,22.54
2018-07-27T06:02:34.148Z,22.54
2018-07-27T06:03:33.912Z,22.54
2018-07-27T06:04:33.992Z,22.54
2018-07-27T06:05:34.008Z,22.57
2018-07-27T06:06:34.023Z,22.56
2018-07-27T06:07:33.916Z,22.58
2018-07-27T06:08:34.009Z,22.59
2018-07-27T06:09:33.900Z,22.59
2018-07-27T06:10:34.104Z,22.61
2018-07-27T06:11:34.084Z,22.61
2018-07-27T06:12:34.239Z,22.61
2018-07-27T06:13:34.060Z,22.6
2018-07-27T06:14:34.079Z,22.63
2018-07-27T06:15:34.029Z,22.65
2018-07-27T06:16:33.905Z,22.64
2018-07-27T06:17:33.949Z,22.64
2018-07-27T06:18:34.137Z,22.65
2018-07-27T06:19:34.043Z,22.65
2018-07-27T06:20:33.948Z,22.66
2018-07-27T06:21:33.970Z,22.65
2018-07-27T06:22:34.077Z,22.65
2018-07-27T06:23:34.223Z,22.67
2018-07-27T06:24:33.923Z,22.69
2018-07-27T06:25:33.985Z,22.67
2018-07-27T06:26:34.091Z,22.7
2018-07-27T06:27:34.177Z,22.72
2018-07-27T06:28:33.891Z,22.72
2018-07-27T06:29:34.014Z,22.73
2018-07-27T06:30:34.063Z,22.74
2018-07-27T06:31:34.008Z,22.74
2018-07-27T06:32:34.974Z,22.74
2018-07-27T06:33:34.116Z,22.73
2018-07-27T06:34:33.912Z,22.74
2018-07-27T06:35:34.000Z,22.74
2018-07-27T06:36:34.258Z,22.74
2018-07-27T06:37:33.946Z,22.73
2018-07-27T06:38:33.940Z,22.73
2018-07-27T06:39:34.130Z,22.74
2018-07-27T06:40:34.022Z,22.73
2018-07-27T06:41:34.051Z,22.74
2018-07-27T06:42:34.013Z,22.74
2018-07-27T06:43:33.838Z,22.74
2018-07-27T06:44:33.959Z,22.74
2018-07-27T06:45:34.025Z,22.74
2018-07-27T06:46:33.997Z,22.74
2018-07-27T06:47:34.038Z,22.75
2018-07-27T06:48:34.054Z,22.75
2018-07-27T06:49:33.993Z,22.74
2018-07-27T06:50:34.127Z,22.75
2018-07-27T06:51:34.073Z,22.75
2018-07-27T06:52:33.976Z,22.74
2018-07-27T06:53:34.255Z,22.77
2018-07-27T06:54:33.882Z,22.77
2018-07-27T06:55:34.177Z,22.79
2018-07-27T06:56:35.307Z,22.82
2018-07-27T06:57:34.125Z,22.85
2018-07-27T06:58:34.073Z,22.84
2018-07-27T06:59:33.947Z,22.84
2018-07-27T07:00:33.992Z,22.85
2018-07-27T07:01:33.863Z,22.87
2018-07-27T07:02:34.577Z,22.85
2018-07-27T07:03:33.988Z,22.86
2018-07-27T07:04:33.955Z,22.86
2018-07-27T07:05:34.325Z,22.86
2018-07-27T07:06:33.993Z,22.86
2018-07-27T07:07:33.932Z,22.85
2018-07-27T07:08:34.034Z,22.87
2018-07-27T07:09:34.327Z,22.87
2018-07-27T07:10:33.856Z,22.88
2018-07-27T07:11:33.940Z,22.87
2018-07-27T07:12:34.096Z,22.88
2018-07-27T07:13:33.970Z,22.88
2018-07-27T07:14:34.228Z,22.86
2018-07-27T07:15:34.045Z,22.88
2018-07-27T07:16:33.910Z,22.89
2018-07-27T07:17:33.943Z,22.9
2018-07-27T07:18:34.091Z,22.9
2018-07-27T07:19:33.874Z,22.91
2018-07-27T07:20:34.016Z,22.91
2018-07-27T07:21:34.049Z,22.91
2018-07-27T07:22:33.866Z,22.93
2018-07-27T07:23:34.062Z,22.94
2018-07-27T07:24:34.025Z,22.95
2018-07-27T07:25:34.023Z,22.94
2018-07-27T07:26:34.058Z,22.96
2018-07-27T07:27:33.946Z,22.96
2018-07-27T07:28:33.839Z,22.96
2018-07-27T07:29:34.135Z,22.96
2018-07-27T07:30:34.075Z,22.97
2018-07-27T07:31:34.127Z,22.97
2018-07-27T07:32:34.038Z,22.98
2018-07-27T07:33:34.001Z,22.99
2018-07-27T07:34:33.868Z,22.99
2018-07-27T07:35:33.964Z,22.99
2018-07-27T07:36:34.245Z,23
2018-07-27T07:37:33.867Z,22.99
2018-07-27T07:38:33.934Z,22.99
2018-07-27T07:39:33.999Z,23
2018-07-27T07:40:34.008Z,23
2018-07-27T07:41:33.916Z,23
2018-07-27T07:42:34.222Z,23
2018-07-27T07:43:33.908Z,23
2018-07-27T07:44:34.064Z,23
2018-07-27T07:45:33.846Z,23.02
2018-07-27T07:46:34.162Z,23.01
2018-07-27T07:47:34.025Z,23.04
2018-07-27T07:48:33.993Z,23.03
2018-07-27T07:49:34.002Z,23.03
2018-07-27T07:50:34.019Z,23.03
2018-07-27T07:51:34.319Z,23.04
2018-07-27T07:52:33.900Z,23.04
2018-07-27T07:53:33.997Z,23.06
2018-07-27T07:54:33.964Z,23.05
2018-07-27T07:55:33.872Z,23.05
2018-07-27T07:56:33.979Z,23.08
2018-07-27T07:57:34.099Z,23.08
2018-07-27T07:58:34.246Z,23.1
2018-07-27T07:59:34.088Z,23.06
2018-07-27T08:00:33.988Z,23.09
2018-07-27T08:01:33.993Z,23.1
2018-07-27T08:02:33.975Z,23.1
2018-07-27T08:03:34.075Z,23.1
2018-07-27T08:04:33.831Z,23.11
2018-07-27T08:05:34.181Z,23.11
2018-07-27T08:06:34.227Z,23.12
2018-07-27T08:07:34.239Z,23.12
2018-07-27T08:08:34.171Z,23.14
2018-07-27T08:09:33.900Z,23.12
2018-07-27T08:10:34.092Z,23.12
2018-07-27T08:11:34.235Z,23.13
2018-07-27T08:12:34.092Z,23.13
2018-07-27T08:13:34.013Z,23.14
2018-07-27T08:14:34.099Z,23.15
2018-07-27T08:15:33.941Z,23.16
2018-07-27T08:16:34.032Z,23.17
2018-07-27T08:17:34.058Z,23.17
2018-07-27T08:18:34.099Z,23.17
2018-07-27T08:19:33.835Z,23.18
2018-07-27T08:20:33.966Z,23.19
2018-07-27T08:21:33.976Z,23.19
2018-07-27T08:22:33.818Z,23.2
2018-07-27T08:23:33.964Z,23.2
2018-07-27T08:24:34.055Z,23.21
2018-07-27T08:25:33.835Z,23.21
2018-07-27T08:26:34.106Z,23.22
2018-07-27T08:27:34.072Z,23.23
2018-07-27T08:28:33.901Z,23.23
2018-07-27T08:29:33.856Z,23.23
2018-07-27T08:30:34.072Z,23.24
2018-07-27T08:31:33.845Z,23.24
2018-07-27T08:32:33.822Z,23.25
2018-07-27T08:33:33.941Z,23.24
2018-07-27T08:34:33.883Z,23.25
2018-07-27T08:35:33.954Z,23.26
2018-07-27T08:36:33.887Z,23.26
2018-07-27T08:37:33.929Z,23.26
2018-07-27T08:38:33.857Z,23.27
2018-07-27T08:39:33.955Z,23.28
2018-07-27T08:40:33.857Z,23.27
2018-07-27T08:41:34.079Z,23.26
2018-07-27T08:42:33.986Z,23.26
2018-07-27T08:43:33.915Z,23.25
2018-07-27T08:44:34.106Z,23.24
2018-07-27T08:45:33.900Z,23.24
2018-07-27T08:46:34.100Z,23.23
2018-07-27T08:47:33.968Z,23.23
2018-07-27T08:48:33.931Z,23.22
2018-07-27T08:49:33.767Z,23.21
2018-07-27T08:50:33.874Z,23.2
2018-07-27T08:51:34.339Z,23.19
2018-07-27T08:52:33.994Z,23.18
2018-07-27T08:53:33.872Z,23.18
2018-07-27T08:54:33.952Z,23.18
2018-07-27T08:55:34.037Z,23.18
2018-07-27T08:56:33.977Z,23.18
2018-07-27T08:57:34.009Z,23.17
2018-07-27T08:58:33.823Z,23.16
2018-07-27T08:59:33.914Z,23.16
2018-07-27T09:00:33.876Z,23.16
2018-07-27T09:01:34.022Z,23.15
2018-07-27T09:02:33.841Z,23.14
2018-07-27T09:03:34.001Z,23.14
2018-07-27T09:04:33.920Z,23.14
2018-07-27T09:05:33.972Z,23.14
2018-07-27T09:06:33.876Z,23.13
2018-07-27T09:07:33.939Z,23.13
2018-07-27T09:08:34.005Z,23.13
2018-07-27T09:09:33.929Z,23.11
2018-07-27T09:10:09.022Z,23.21
2018-07-27T09:11:09.201Z,23.28
2018-07-27T09:12:19.029Z,23.32
2018-07-27T09:13:09.179Z,23.38
2018-07-27T09:14:09.096Z,23.38
2018-07-27T09:15:09.184Z,23.41
2018-07-27T09:16:09.278Z,23.42
2018-07-27T09:17:08.976Z,23.44
2018-07-27T09:18:09.283Z,23.45
2018-07-27T09:19:09.119Z,23.47
2018-07-27T09:20:09.204Z,23.47
2018-07-27T09:21:09.248Z,23.47
2018-07-27T09:22:09.074Z,23.48
2018-07-27T09:23:09.414Z,23.49
2018-07-27T09:24:09.185Z,23.5
2018-07-27T09:25:09.493Z,23.52
2018-07-27T09:26:09.216Z,23.52
2018-07-27T09:27:09.314Z,23.53
2018-07-27T09:28:09.286Z,23.53
2018-07-27T09:29:09.129Z,23.53
2018-07-27T09:30:08.912Z,23.55
2018-07-27T09:31:09.119Z,23.55
2018-07-27T09:32:09.257Z,23.55
2018-07-27T09:33:22.232Z,23.57
2018-07-27T09:34:22.559Z,23.58
2018-07-27T09:35:22.201Z,23.58
2018-07-27T09:36:18.524Z,23.59
2018-07-27T09:37:18.755Z,23.59
2018-07-27T09:38:18.565Z,23.6
2018-07-27T09:39:18.540Z,23.61
2018-07-27T09:40:18.614Z,23.61
2018-07-27T09:41:18.665Z,23.63
2018-07-27T09:42:18.704Z,23.64
2018-07-27T09:43:18.730Z,23.64
2018-07-27T09:44:18.550Z,23.65
2018-07-27T09:45:18.497Z,23.64
2018-07-27T09:46:18.536Z,23.65
2018-07-27T09:47:18.510Z,23.65
2018-07-27T09:48:18.622Z,23.67
2018-07-27T09:49:18.530Z,23.66
2018-07-27T09:50:18.649Z,23.68
2018-07-27T09:51:18.560Z,23.68
2018-07-27T09:52:18.631Z,23.69
2018-07-27T09:53:18.633Z,23.7
2018-07-27T09:54:18.564Z,23.71
2018-07-27T09:55:18.699Z,23.7
2018-07-27T09:56:18.462Z,23.71
2018-07-27T09:57:18.648Z,23.71
2018-07-27T09:58:18.610Z,23.72
2018-07-27T09:59:18.800Z,23.73
2018-07-27T10:00:18.587Z,23.73
2018-07-27T10:01:18.626Z,23.75
2018-07-27T10:02:18.558Z,23.73
2018-07-27T10:03:18.667Z,23.74
2018-07-27T10:04:18.678Z,23.75
2018-07-27T10:05:18.626Z,23.74
2018-07-27T10:06:02.583Z,23.82
2018-07-27T10:07:02.768Z,23.68
2018-07-27T10:08:02.444Z,23.64
2018-07-27T10:09:02.413Z,23.59
2018-07-27T10:10:02.567Z,23.57
2018-07-27T10:11:03.242Z,23.53
2018-07-27T10:12:02.636Z,23.52
2018-07-27T10:13:02.674Z,23.51
2018-07-27T10:14:02.673Z,23.5
2018-07-27T10:15:02.492Z,23.49
2018-07-27T10:16:02.605Z,23.48
2018-07-27T10:17:02.375Z,23.48
2018-07-27T10:18:02.577Z,23.47
2018-07-27T10:19:02.740Z,23.47
2018-07-27T10:20:02.574Z,23.45
2018-07-27T10:21:02.847Z,23.45
2018-07-27T10:22:02.592Z,23.45
2018-07-27T10:23:02.622Z,23.45
2018-07-27T10:24:02.598Z,23.44
2018-07-27T10:25:02.471Z,23.44
2018-07-27T10:26:12.478Z,23.41
2018-07-27T10:27:02.595Z,23.41
2018-07-27T10:28:02.851Z,23.39
2018-07-27T10:29:02.781Z,23.38
2018-07-27T10:30:02.485Z,23.37
2018-07-27T10:31:02.766Z,23.36
2018-07-27T10:32:02.499Z,23.34
2018-07-27T10:33:02.804Z,23.34
2018-07-27T10:34:02.710Z,23.33
2018-07-27T10:35:02.579Z,23.33
2018-07-27T10:36:02.666Z,23.33
2018-07-27T10:37:03.070Z,23.31
2018-07-27T10:38:02.892Z,23.3
2018-07-27T10:39:02.578Z,23.3
2018-07-27T10:40:02.764Z,23.3
2018-07-27T10:41:02.506Z,23.29
2018-07-27T10:42:02.622Z,23.29
2018-07-27T10:43:02.550Z,23.28
2018-07-27T10:44:02.573Z,23.28
2018-07-27T10:45:02.712Z,23.28
2018-07-27T10:46:02.520Z,23.26
2018-07-27T10:47:02.738Z,23.26
2018-07-27T10:48:02.906Z,23.26
2018-07-27T10:49:02.705Z,23.26
2018-07-27T10:50:02.388Z,23.25
2018-07-27T10:51:02.589Z,23.24
2018-07-27T10:52:02.592Z,23.24
2018-07-27T10:53:02.389Z,23.24
2018-07-27T10:54:02.779Z,23.24
2018-07-27T10:55:03.033Z,23.23
2018-07-27T10:56:02.615Z,23.23
2018-07-27T10:57:02.616Z,23.23
2018-07-27T10:58:02.448Z,23.23
2018-07-27T10:59:02.719Z,23.23
2018-07-27T11:00:02.646Z,23.22
2018-07-27T11:01:02.502Z,23.22
2018-07-27T11:02:02.392Z,23.22
2018-07-27T11:03:02.615Z,23.21
2018-07-27T11:04:02.530Z,23.21
2018-07-27T11:05:02.488Z,23.21
2018-07-27T11:06:02.306Z,23.21
2018-07-27T11:07:02.627Z,23.2
2018-07-27T11:08:02.610Z,23.2
2018-07-27T11:09:02.416Z,23.2
2018-07-27T11:10:02.574Z,23.2
2018-07-27T11:11:02.509Z,23.19
2018-07-27T11:12:02.558Z,23.2
2018-07-27T11:13:02.557Z,23.2
2018-07-27T11:14:02.541Z,23.19
2018-07-27T11:15:02.431Z,23.2
2018-07-27T11:16:02.661Z,23.19
2018-07-27T11:17:02.546Z,23.18
2018-07-27T11:18:02.530Z,23.18
2018-07-27T11:19:02.497Z,23.17
2018-07-27T11:20:02.706Z,23.22
2018-07-27T11:21:02.533Z,23.23
2018-07-27T11:22:02.573Z,23.23
2018-07-27T11:23:02.920Z,23.24
2018-07-27T11:24:02.526Z,23.25
2018-07-27T11:25:02.689Z,23.25
2018-07-27T11:26:02.544Z,23.25
2018-07-27T11:27:02.590Z,23.26
2018-07-27T11:28:02.569Z,23.26
2018-07-27T11:29:02.798Z,23.28
2018-07-27T11:30:02.612Z,23.27
2018-07-27T11:31:02.450Z,23.27
2018-07-27T11:32:02.518Z,23.29
2018-07-27T11:33:02.544Z,23.29
2018-07-27T11:34:02.912Z,23.29
2018-07-27T11:35:02.804Z,23.3
2018-07-27T11:36:02.588Z,23.31
2018-07-27T11:37:02.825Z,23.31
2018-07-27T11:38:02.488Z,23.31
2018-07-27T11:39:02.640Z,23.3
2018-07-27T11:40:02.545Z,23.29
2018-07-27T11:41:02.589Z,23.3
2018-07-27T11:42:02.647Z,23.28
2018-07-27T11:43:02.508Z,23.28
2018-07-27T11:44:02.736Z,23.28
2018-07-27T11:45:02.658Z,23.28
2018-07-27T11:46:02.386Z,23.26
2018-07-27T11:47:02.374Z,23.26
2018-07-27T11:48:02.468Z,23.26
2018-07-27T11:49:02.842Z,23.26
2018-07-27T11:50:02.542Z,23.24
2018-07-27T11:51:02.632Z,23.25
2018-07-27T11:52:02.675Z,23.24
2018-07-27T11:53:02.698Z,23.24
2018-07-27T11:54:02.624Z,23.24
2018-07-27T11:55:02.841Z,23.23
2018-07-27T11:56:02.481Z,23.24
2018-07-27T11:57:03.053Z,23.24
2018-07-27T11:58:02.519Z,23.23
2018-07-27T11:59:02.612Z,23.23
2018-07-27T12:00:02.641Z,23.22
2018-07-27T12:01:02.545Z,23.2
2018-07-27T12:02:02.643Z,23.22
2018-07-27T12:03:02.461Z,23.24
2018-07-27T12:04:02.645Z,23.24
2018-07-27T12:05:02.590Z,23.25
2018-07-27T12:06:02.775Z,23.27
2018-07-27T12:07:03.114Z,23.27
2018-07-27T12:08:02.857Z,23.27
2018-07-27T12:09:03.192Z,23.28
2018-07-27T12:10:02.681Z,23.28
2018-07-27T12:11:02.711Z,23.28
2018-07-27T12:12:02.622Z,23.29
2018-07-27T12:13:02.585Z,23.29
2018-07-27T12:14:12.853Z,23.29
2018-07-27T12:15:02.822Z,23.28
2018-07-27T12:16:02.699Z,23.29
2018-07-27T12:17:02.521Z,23.28
2018-07-27T12:18:02.599Z,23.28
2018-07-27T12:19:02.560Z,23.26
2018-07-27T12:20:02.538Z,23.26
2018-07-27T12:21:03.114Z,23.26
2018-07-27T12:22:02.573Z,23.26
2018-07-27T12:23:02.614Z,23.25
2018-07-27T12:24:02.564Z,23.26
2018-07-27T12:25:02.620Z,23.25
2018-07-27T12:26:02.646Z,23.25
2018-07-27T12:27:02.628Z,23.24
2018-07-27T12:28:02.920Z,23.24
2018-07-27T12:29:02.688Z,23.23
2018-07-27T12:30:02.517Z,23.23
2018-07-27T12:31:02.758Z,23.24
2018-07-27T12:32:02.644Z,23.23
2018-07-27T12:33:02.686Z,23.23
2018-07-27T12:34:02.593Z,23.22
2018-07-27T12:35:02.504Z,23.22
2018-07-27T12:36:02.677Z,23.24
2018-07-27T12:37:02.754Z,23.25
2018-07-27T12:38:02.919Z,23.25
2018-07-27T12:39:02.690Z,23.26
2018-07-27T12:40:02.676Z,23.27
2018-07-27T12:41:03.547Z,23.28
2018-07-27T12:42:02.601Z,23.29
2018-07-27T12:43:02.447Z,23.29
2018-07-27T12:44:02.440Z,23.3
2018-07-27T12:45:02.730Z,23.3
2018-07-27T12:46:02.641Z,23.3
2018-07-27T12:47:02.633Z,23.31
2018-07-27T12:48:02.437Z,23.32
2018-07-27T12:49:02.786Z,23.32
2018-07-27T12:50:02.461Z,23.33
2018-07-27T12:51:02.772Z,23.35
2018-07-27T12:52:03.055Z,23.36
2018-07-27T12:53:02.645Z,23.36
2018-07-27T12:54:02.689Z,23.37
2018-07-27T12:55:02.555Z,23.36
2018-07-27T12:56:02.464Z,23.38